sensor_id;sensor_type;location;lat;lon;timestamp;temperature;humidity
45619;DHT22;31343;47.520;19.144;2023-05-07T00:01:43;16.50;99.90
45619;DHT22;31343;47.520;19.144;2023-05-07T00:04:09;16.50;99.90
45619;DHT22;31343;47.520;19.144;2023-05-07T00:06:35;16.50;99.90
45619;DHT22;31343;47.520;19.144;2023-05-07T00:09:01;16.60;99.90
45619;DHT22;31343;47.520;19.144;2023-05-07T00:11:27;16.50;99.90
45619;DHT22;31343;47.520;19.144;2023-05-07T00:13:53;16.50;99.90
45619;DHT22;31343;47.520;19.144;2023-05-07T00:16:19;16.40;99.90
45619;DHT22;31343;47.520;19.144;2023-05-07T00:18:45;16.40;99.90
45619;DHT22;31343;47.520;19.144;2023-05-07T00:21:11;16.40;99.90
45619;DHT22;31343;47.520;19.144;2023-05-07T00:23:37;16.30;99.90
45619;DHT22;31343;47.520;19.144;2023-05-07T00:26:03;16.30;99.90
45619;DHT22;31343;47.520;19.144;2023-05-07T00:28:29;16.20;99.90
45619;DHT22;31343;47.520;19.144;2023-05-07T00:30:55;16.20;99.90
45619;DHT22;31343;47.520;19.144;2023-05-07T00:33:21;16.10;99.90
45619;DHT22;31343;47.520;19.144;2023-05-07T00:35:48;16.00;99.90
45619;DHT22;31343;47.520;19.144;2023-05-07T00:38:14;15.90;99.90
45619;DHT22;31343;47.520;19.144;2023-05-07T00:40:39;15.90;99.90
45619;DHT22;31343;47.520;19.144;2023-05-07T00:43:06;15.90;99.90
45619;DHT22;31343;47.520;19.144;2023-05-07T00:45:33;16.00;99.90
45619;DHT22;31343;47.520;19.144;2023-05-07T00:48:02;16.00;99.90
45619;DHT22;31343;47.520;19.144;2023-05-07T00:50:28;16.00;99.90
45619;DHT22;31343;47.520;19.144;2023-05-07T00:52:55;15.90;99.90
45619;DHT22;31343;47.520;19.144;2023-05-07T00:55:22;15.90;99.90
45619;DHT22;31343;47.520;19.144;2023-05-07T00:57:48;15.90;99.90
45619;DHT22;31343;47.520;19.144;2023-05-07T01:00:14;15.90;99.90
45619;DHT22;31343;47.520;19.144;2023-05-07T01:02:41;16.00;99.90
45619;DHT22;31343;47.520;19.144;2023-05-07T01:05:10;15.90;99.90
45619;DHT22;31343;47.520;19.144;2023-05-07T01:07:37;15.90;99.90
45619;DHT22;31343;47.520;19.144;2023-05-07T01:10:05;15.80;99.90
45619;DHT22;31343;47.520;19.144;2023-05-07T01:12:31;15.80;99.90
45619;DHT22;31343;47.520;19.144;2023-05-07T01:14:58;15.90;99.90
45619;DHT22;31343;47.520;19.144;2023-05-07T01:17:24;15.90;99.90
45619;DHT22;31343;47.520;19.144;2023-05-07T01:19:50;15.90;99.90
45619;DHT22;31343;47.520;19.144;2023-05-07T01:25:15;15.90;99.90
45619;DHT22;31343;47.520;19.144;2023-05-07T01:27:41;15.80;99.90
45619;DHT22;31343;47.520;19.144;2023-05-07T01:30:07;15.80;99.90
45619;DHT22;31343;47.520;19.144;2023-05-07T01:32:52;15.90;99.90
45619;DHT22;31343;47.520;19.144;2023-05-07T01:35:21;15.90;99.90
45619;DHT22;31343;47.520;19.144;2023-05-07T01:37:48;15.80;99.90
45619;DHT22;31343;47.520;19.144;2023-05-07T01:40:15;15.80;99.90
45619;DHT22;31343;47.520;19.144;2023-05-07T01:42:43;15.80;99.90
45619;DHT22;31343;47.520;19.144;2023-05-07T01:45:09;15.90;99.90
45619;DHT22;31343;47.520;19.144;2023-05-07T01:47:36;15.90;99.90
45619;DHT22;31343;47.520;19.144;2023-05-07T01:50:06;15.70;99.90
45619;DHT22;31343;47.520;19.144;2023-05-07T01:52:34;15.60;99.90
45619;DHT22;31343;47.520;19.144;2023-05-07T01:55:00;15.60;99.90
45619;DHT22;31343;47.520;19.144;2023-05-07T01:57:26;15.60;99.90
45619;DHT22;31343;47.520;19.144;2023-05-07T01:59:51;15.60;99.90
45619;DHT22;31343;47.520;19.144;2023-05-07T02:02:17;15.50;99.90
45619;DHT22;31343;47.520;19.144;2023-05-07T02:04:43;15.50;99.90
45619;DHT22;31343;47.520;19.144;2023-05-07T02:07:09;15.40;99.90
45619;DHT22;31343;47.520;19.144;2023-05-07T02:09:35;15.40;99.90
45619;DHT22;31343;47.520;19.144;2023-05-07T02:12:01;15.40;99.90
45619;DHT22;31343;47.520;19.144;2023-05-07T02:14:27;15.40;99.90
45619;DHT22;31343;47.520;19.144;2023-05-07T02:16:52;15.20;99.90
45619;DHT22;31343;47.520;19.144;2023-05-07T02:19:18;15.20;99.90
45619;DHT22;31343;47.520;19.144;2023-05-07T02:21:46;15.10;99.90
45619;DHT22;31343;47.520;19.144;2023-05-07T02:24:13;15.00;99.90
45619;DHT22;31343;47.520;19.144;2023-05-07T02:26:40;15.00;99.90
45619;DHT22;31343;47.520;19.144;2023-05-07T02:29:06;15.10;99.90
45619;DHT22;31343;47.520;19.144;2023-05-07T02:31:32;15.10;99.90
45619;DHT22;31343;47.520;19.144;2023-05-07T02:33:59;15.00;99.90
45619;DHT22;31343;47.520;19.144;2023-05-07T02:36:25;15.00;99.90
45619;DHT22;31343;47.520;19.144;2023-05-07T02:38:52;15.00;99.90
45619;DHT22;31343;47.520;19.144;2023-05-07T02:41:18;14.90;99.90
45619;DHT22;31343;47.520;19.144;2023-05-07T02:43:43;14.80;99.90
45619;DHT22;31343;47.520;19.144;2023-05-07T02:46:09;14.80;99.90
45619;DHT22;31343;47.520;19.144;2023-05-07T02:48:35;14.80;99.90
45619;DHT22;31343;47.520;19.144;2023-05-07T02:51:01;14.70;99.90
45619;DHT22;31343;47.520;19.144;2023-05-07T02:53:27;14.70;99.90
45619;DHT22;31343;47.520;19.144;2023-05-07T02:55:59;14.60;99.90
45619;DHT22;31343;47.520;19.144;2023-05-07T02:58:25;14.60;99.90
45619;DHT22;31343;47.520;19.144;2023-05-07T03:00:52;14.60;99.90
45619;DHT22;31343;47.520;19.144;2023-05-07T03:03:18;14.60;99.90
45619;DHT22;31343;47.520;19.144;2023-05-07T03:05:43;14.60;99.90
45619;DHT22;31343;47.520;19.144;2023-05-07T03:08:10;14.60;99.90
45619;DHT22;31343;47.520;19.144;2023-05-07T03:10:36;14.50;99.90
45619;DHT22;31343;47.520;19.144;2023-05-07T03:13:02;14.50;99.90
45619;DHT22;31343;47.520;19.144;2023-05-07T03:15:28;14.50;99.90
45619;DHT22;31343;47.520;19.144;2023-05-07T03:17:55;14.40;99.90
45619;DHT22;31343;47.520;19.144;2023-05-07T03:20:21;14.40;99.90
45619;DHT22;31343;47.520;19.144;2023-05-07T03:22:47;14.40;99.90
45619;DHT22;31343;47.520;19.144;2023-05-07T03:25:13;14.30;99.90
45619;DHT22;31343;47.520;19.144;2023-05-07T03:27:40;14.20;99.90
45619;DHT22;31343;47.520;19.144;2023-05-07T03:30:07;14.30;99.90
45619;DHT22;31343;47.520;19.144;2023-05-07T03:32:34;14.30;99.90
45619;DHT22;31343;47.520;19.144;2023-05-07T03:35:01;14.40;99.90
45619;DHT22;31343;47.520;19.144;2023-05-07T03:37:28;14.40;99.90
45619;DHT22;31343;47.520;19.144;2023-05-07T03:39:53;14.30;99.90
45619;DHT22;31343;47.520;19.144;2023-05-07T03:42:19;14.40;99.90
45619;DHT22;31343;47.520;19.144;2023-05-07T03:44:45;14.40;99.90
45619;DHT22;31343;47.520;19.144;2023-05-07T03:47:10;14.40;99.90
45619;DHT22;31343;47.520;19.144;2023-05-07T03:49:36;14.40;99.90
45619;DHT22;31343;47.520;19.144;2023-05-07T03:52:02;14.50;99.90
45619;DHT22;31343;47.520;19.144;2023-05-07T03:54:28;14.50;99.90
45619;DHT22;31343;47.520;19.144;2023-05-07T03:56:54;14.50;99.90
45619;DHT22;31343;47.520;19.144;2023-05-07T03:59:19;14.60;99.90
45619;DHT22;31343;47.520;19.144;2023-05-07T04:01:45;14.60;99.90
45619;DHT22;31343;47.520;19.144;2023-05-07T04:04:11;14.60;99.90
45619;DHT22;31343;47.520;19.144;2023-05-07T04:06:37;14.60;99.90
45619;DHT22;31343;47.520;19.144;2023-05-07T04:09:03;14.60;99.90
45619;DHT22;31343;47.520;19.144;2023-05-07T04:11:29;14.60;99.90
45619;DHT22;31343;47.520;19.144;2023-05-07T04:13:54;14.60;99.90
45619;DHT22;31343;47.520;19.144;2023-05-07T04:16:21;14.60;99.90
45619;DHT22;31343;47.520;19.144;2023-05-07T04:18:47;14.60;99.90
45619;DHT22;31343;47.520;19.144;2023-05-07T04:21:17;14.60;99.90
45619;DHT22;31343;47.520;19.144;2023-05-07T04:23:43;14.70;99.90
45619;DHT22;31343;47.520;19.144;2023-05-07T04:26:08;14.70;99.90
45619;DHT22;31343;47.520;19.144;2023-05-07T04:28:35;14.80;99.90
45619;DHT22;31343;47.520;19.144;2023-05-07T04:31:01;15.20;99.90
45619;DHT22;31343;47.520;19.144;2023-05-07T04:33:26;15.00;99.90
45619;DHT22;31343;47.520;19.144;2023-05-07T04:35:52;15.10;99.90
45619;DHT22;31343;47.520;19.144;2023-05-07T04:38:18;15.10;99.90
45619;DHT22;31343;47.520;19.144;2023-05-07T04:40:44;15.10;99.90
45619;DHT22;31343;47.520;19.144;2023-05-07T04:43:10;15.10;99.90
45619;DHT22;31343;47.520;19.144;2023-05-07T04:45:36;15.10;99.90
45619;DHT22;31343;47.520;19.144;2023-05-07T04:48:03;15.10;99.90
45619;DHT22;31343;47.520;19.144;2023-05-07T04:50:29;15.10;99.90
45619;DHT22;31343;47.520;19.144;2023-05-07T04:52:55;15.20;99.90
45619;DHT22;31343;47.520;19.144;2023-05-07T04:55:21;15.50;99.90
45619;DHT22;31343;47.520;19.144;2023-05-07T04:57:47;15.70;99.90
45619;DHT22;31343;47.520;19.144;2023-05-07T05:00:13;16.10;99.90
45619;DHT22;31343;47.520;19.144;2023-05-07T05:02:40;16.30;99.90
45619;DHT22;31343;47.520;19.144;2023-05-07T05:05:06;16.60;99.90
45619;DHT22;31343;47.520;19.144;2023-05-07T05:07:32;17.30;99.90
45619;DHT22;31343;47.520;19.144;2023-05-07T05:09:58;18.30;99.90
45619;DHT22;31343;47.520;19.144;2023-05-07T05:12:24;18.80;99.90
45619;DHT22;31343;47.520;19.144;2023-05-07T05:14:50;19.30;99.90
45619;DHT22;31343;47.520;19.144;2023-05-07T05:17:16;20.30;99.90
45619;DHT22;31343;47.520;19.144;2023-05-07T05:19:41;21.50;99.90
45619;DHT22;31343;47.520;19.144;2023-05-07T05:22:07;21.80;99.90
45619;DHT22;31343;47.520;19.144;2023-05-07T05:24:33;21.50;99.90
45619;DHT22;31343;47.520;19.144;2023-05-07T05:26:58;21.10;99.90
45619;DHT22;31343;47.520;19.144;2023-05-07T05:29:28;21.10;99.90
45619;DHT22;31343;47.520;19.144;2023-05-07T05:31:54;20.90;99.90
45619;DHT22;31343;47.520;19.144;2023-05-07T05:34:19;20.90;99.90
45619;DHT22;31343;47.520;19.144;2023-05-07T05:36:45;21.40;99.90
45619;DHT22;31343;47.520;19.144;2023-05-07T05:39:11;22.50;99.90
45619;DHT22;31343;47.520;19.144;2023-05-07T05:41:38;23.50;99.90
45619;DHT22;31343;47.520;19.144;2023-05-07T05:44:03;24.40;99.30
45619;DHT22;31343;47.520;19.144;2023-05-07T05:46:29;25.00;96.80
45619;DHT22;31343;47.520;19.144;2023-05-07T05:48:55;24.70;96.30
45619;DHT22;31343;47.520;19.144;2023-05-07T05:51:21;25.00;96.50
45619;DHT22;31343;47.520;19.144;2023-05-07T05:53:47;25.50;95.40
45619;DHT22;31343;47.520;19.144;2023-05-07T05:56:13;26.40;94.40
45619;DHT22;31343;47.520;19.144;2023-05-07T05:58:39;27.60;92.90
45619;DHT22;31343;47.520;19.144;2023-05-07T06:01:04;27.90;91.80
45619;DHT22;31343;47.520;19.144;2023-05-07T06:03:31;27.80;91.10
45619;DHT22;31343;47.520;19.144;2023-05-07T06:05:57;27.40;91.10
45619;DHT22;31343;47.520;19.144;2023-05-07T06:08:23;27.50;91.20
45619;DHT22;31343;47.520;19.144;2023-05-07T06:10:49;27.80;91.10
45619;DHT22;31343;47.520;19.144;2023-05-07T06:13:15;27.60;90.30
45619;DHT22;31343;47.520;19.144;2023-05-07T06:15:41;27.70;90.50
45619;DHT22;31343;47.520;19.144;2023-05-07T06:18:08;28.60;89.20
45619;DHT22;31343;47.520;19.144;2023-05-07T06:20:33;29.20;88.10
45619;DHT22;31343;47.520;19.144;2023-05-07T06:22:59;29.90;85.30
45619;DHT22;31343;47.520;19.144;2023-05-07T06:25:25;30.30;83.00
45619;DHT22;31343;47.520;19.144;2023-05-07T06:27:51;31.30;80.40
45619;DHT22;31343;47.520;19.144;2023-05-07T06:30:16;31.30;79.20
45619;DHT22;31343;47.520;19.144;2023-05-07T06:32:42;31.80;76.50
45619;DHT22;31343;47.520;19.144;2023-05-07T06:35:08;31.30;77.10
45619;DHT22;31343;47.520;19.144;2023-05-07T06:37:34;31.30;78.00
45619;DHT22;31343;47.520;19.144;2023-05-07T06:40:00;31.00;76.00
45619;DHT22;31343;47.520;19.144;2023-05-07T06:42:25;31.20;76.00
45619;DHT22;31343;47.520;19.144;2023-05-07T06:44:52;31.40;75.10
45619;DHT22;31343;47.520;19.144;2023-05-07T06:47:18;31.40;74.60
45619;DHT22;31343;47.520;19.144;2023-05-07T06:49:44;31.20;74.20
45619;DHT22;31343;47.520;19.144;2023-05-07T06:52:10;31.10;74.10
45619;DHT22;31343;47.520;19.144;2023-05-07T06:54:35;31.50;73.80
45619;DHT22;31343;47.520;19.144;2023-05-07T06:57:01;30.50;74.40
45619;DHT22;31343;47.520;19.144;2023-05-07T06:59:27;31.00;74.40
45619;DHT22;31343;47.520;19.144;2023-05-07T07:01:52;31.00;72.70
45619;DHT22;31343;47.520;19.144;2023-05-07T07:04:18;31.30;72.60
45619;DHT22;31343;47.520;19.144;2023-05-07T07:06:45;31.20;72.80
45619;DHT22;31343;47.520;19.144;2023-05-07T07:09:11;31.80;72.60
45619;DHT22;31343;47.520;19.144;2023-05-07T07:11:37;31.70;72.20
45619;DHT22;31343;47.520;19.144;2023-05-07T07:14:02;30.90;70.70
45619;DHT22;31343;47.520;19.144;2023-05-07T07:16:28;31.30;72.50
45619;DHT22;31343;47.520;19.144;2023-05-07T07:18:54;31.40;72.10
45619;DHT22;31343;47.520;19.144;2023-05-07T07:21:20;31.60;71.40
45619;DHT22;31343;47.520;19.144;2023-05-07T07:23:45;31.20;70.50
45619;DHT22;31343;47.520;19.144;2023-05-07T07:26:11;29.70;72.00
45619;DHT22;31343;47.520;19.144;2023-05-07T07:28:43;29.30;74.20
45619;DHT22;31343;47.520;19.144;2023-05-07T07:31:09;29.10;74.00
45619;DHT22;31343;47.520;19.144;2023-05-07T07:33:35;28.80;74.30
45619;DHT22;31343;47.520;19.144;2023-05-07T07:36:01;29.10;73.50
45619;DHT22;31343;47.520;19.144;2023-05-07T07:38:26;28.60;74.60
45619;DHT22;31343;47.520;19.144;2023-05-07T07:40:52;28.10;75.50
45619;DHT22;31343;47.520;19.144;2023-05-07T07:43:17;27.90;77.80
45619;DHT22;31343;47.520;19.144;2023-05-07T07:45:44;28.10;78.10
45619;DHT22;31343;47.520;19.144;2023-05-07T07:48:11;28.10;77.20
45619;DHT22;31343;47.520;19.144;2023-05-07T07:50:37;27.90;77.80
45619;DHT22;31343;47.520;19.144;2023-05-07T07:53:03;27.40;77.40
45619;DHT22;31343;47.520;19.144;2023-05-07T07:55:29;27.50;77.80
45619;DHT22;31343;47.520;19.144;2023-05-07T07:57:57;27.50;78.30
45619;DHT22;31343;47.520;19.144;2023-05-07T08:00:23;27.70;79.10
45619;DHT22;31343;47.520;19.144;2023-05-07T08:02:48;27.90;78.70
45619;DHT22;31343;47.520;19.144;2023-05-07T08:05:15;28.50;78.10
45619;DHT22;31343;47.520;19.144;2023-05-07T08:07:41;28.60;76.60
45619;DHT22;31343;47.520;19.144;2023-05-07T08:10:06;28.70;76.60
45619;DHT22;31343;47.520;19.144;2023-05-07T08:12:32;28.80;77.50
45619;DHT22;31343;47.520;19.144;2023-05-07T08:14:58;28.20;77.80
45619;DHT22;31343;47.520;19.144;2023-05-07T08:17:24;27.50;77.90
45619;DHT22;31343;47.520;19.144;2023-05-07T08:19:50;27.20;78.60
45619;DHT22;31343;47.520;19.144;2023-05-07T08:22:15;26.80;77.90
45619;DHT22;31343;47.520;19.144;2023-05-07T08:24:43;26.60;78.70
45619;DHT22;31343;47.520;19.144;2023-05-07T08:27:10;26.10;79.80
45619;DHT22;31343;47.520;19.144;2023-05-07T08:29:35;25.40;80.90
45619;DHT22;31343;47.520;19.144;2023-05-07T08:32:01;25.10;83.10
45619;DHT22;31343;47.520;19.144;2023-05-07T08:34:27;24.80;84.90
45619;DHT22;31343;47.520;19.144;2023-05-07T08:36:53;24.40;84.50
45619;DHT22;31343;47.520;19.144;2023-05-07T08:39:19;24.10;86.90
45619;DHT22;31343;47.520;19.144;2023-05-07T08:41:45;24.00;86.80
45619;DHT22;31343;47.520;19.144;2023-05-07T08:44:13;23.80;87.90
45619;DHT22;31343;47.520;19.144;2023-05-07T08:46:42;23.70;87.90
45619;DHT22;31343;47.520;19.144;2023-05-07T08:49:09;23.70;89.10
45619;DHT22;31343;47.520;19.144;2023-05-07T08:51:36;23.70;89.40
45619;DHT22;31343;47.520;19.144;2023-05-07T08:54:01;23.70;90.00
45619;DHT22;31343;47.520;19.144;2023-05-07T08:56:27;23.80;89.20
45619;DHT22;31343;47.520;19.144;2023-05-07T08:58:53;23.90;87.70
45619;DHT22;31343;47.520;19.144;2023-05-07T09:01:24;24.20;86.20
45619;DHT22;31343;47.520;19.144;2023-05-07T09:03:50;24.20;86.20
45619;DHT22;31343;47.520;19.144;2023-05-07T09:06:17;24.30;87.40
45619;DHT22;31343;47.520;19.144;2023-05-07T09:08:50;24.40;86.40
45619;DHT22;31343;47.520;19.144;2023-05-07T09:11:19;24.10;84.80
45619;DHT22;31343;47.520;19.144;2023-05-07T09:13:44;24.00;84.30
45619;DHT22;31343;47.520;19.144;2023-05-07T09:16:13;24.10;85.20
45619;DHT22;31343;47.520;19.144;2023-05-07T09:18:43;23.80;82.80
45619;DHT22;31343;47.520;19.144;2023-05-07T09:21:15;24.00;84.80
45619;DHT22;31343;47.520;19.144;2023-05-07T09:23:42;24.40;85.20
45619;DHT22;31343;47.520;19.144;2023-05-07T09:26:07;24.70;85.30
45619;DHT22;31343;47.520;19.144;2023-05-07T09:28:43;24.80;83.70
45619;DHT22;31343;47.520;19.144;2023-05-07T09:31:10;25.20;83.30
45619;DHT22;31343;47.520;19.144;2023-05-07T09:33:37;25.20;83.20
45619;DHT22;31343;47.520;19.144;2023-05-07T09:36:04;25.30;81.10
45619;DHT22;31343;47.520;19.144;2023-05-07T09:38:31;25.40;81.60
45619;DHT22;31343;47.520;19.144;2023-05-07T09:41:08;25.40;81.90
45619;DHT22;31343;47.520;19.144;2023-05-07T09:43:35;25.10;82.80
45619;DHT22;31343;47.520;19.144;2023-05-07T09:46:06;25.30;82.20
45619;DHT22;31343;47.520;19.144;2023-05-07T09:48:38;25.60;81.80
45619;DHT22;31343;47.520;19.144;2023-05-07T09:51:45;25.70;80.60
45619;DHT22;31343;47.520;19.144;2023-05-07T09:54:02;25.90;80.90
45619;DHT22;31343;47.520;19.144;2023-05-07T09:56:29;26.00;77.30
45619;DHT22;31343;47.520;19.144;2023-05-07T09:58:59;25.80;77.60
45619;DHT22;31343;47.520;19.144;2023-05-07T10:01:26;25.50;79.00
45619;DHT22;31343;47.520;19.144;2023-05-07T10:03:53;25.30;77.30
45619;DHT22;31343;47.520;19.144;2023-05-07T10:06:23;24.90;78.40
45619;DHT22;31343;47.520;19.144;2023-05-07T10:08:51;24.70;78.00
45619;DHT22;31343;47.520;19.144;2023-05-07T10:11:18;24.90;78.70
45619;DHT22;31343;47.520;19.144;2023-05-07T10:13:43;24.90;77.40
45619;DHT22;31343;47.520;19.144;2023-05-07T10:16:10;24.90;76.60
45619;DHT22;31343;47.520;19.144;2023-05-07T10:18:37;25.00;77.30
45619;DHT22;31343;47.520;19.144;2023-05-07T10:21:10;25.20;77.90
45619;DHT22;31343;47.520;19.144;2023-05-07T10:23:37;25.10;77.00
45619;DHT22;31343;47.520;19.144;2023-05-07T10:26:06;25.10;78.30
45619;DHT22;31343;47.520;19.144;2023-05-07T10:28:38;25.10;78.40
45619;DHT22;31343;47.520;19.144;2023-05-07T10:34:11;24.50;78.60
45619;DHT22;31343;47.520;19.144;2023-05-07T10:36:38;24.50;80.40
45619;DHT22;31343;47.520;19.144;2023-05-07T10:39:05;24.10;80.00
45619;DHT22;31343;47.520;19.144;2023-05-07T10:41:31;24.20;81.40
45619;DHT22;31343;47.520;19.144;2023-05-07T10:43:57;24.50;81.30
45619;DHT22;31343;47.520;19.144;2023-05-07T10:46:26;24.70;81.40
45619;DHT22;31343;47.520;19.144;2023-05-07T10:51:32;25.20;79.20
45619;DHT22;31343;47.520;19.144;2023-05-07T10:54:19;25.40;79.60
45619;DHT22;31343;47.520;19.144;2023-05-07T10:56:45;25.80;80.00
45619;DHT22;31343;47.520;19.144;2023-05-07T11:01:58;25.90;79.60
45619;DHT22;31343;47.520;19.144;2023-05-07T11:04:24;25.60;79.80
45619;DHT22;31343;47.520;19.144;2023-05-07T11:15:07;26.10;78.90
45619;DHT22;31343;47.520;19.144;2023-05-07T11:17:34;26.50;78.80
45619;DHT22;31343;47.520;19.144;2023-05-07T11:20:01;27.00;77.20
45619;DHT22;31343;47.520;19.144;2023-05-07T11:24:56;27.60;79.10
45619;DHT22;31343;47.520;19.144;2023-05-07T11:27:28;27.30;78.80
45619;DHT22;31343;47.520;19.144;2023-05-07T11:29:54;26.70;80.50
45619;DHT22;31343;47.520;19.144;2023-05-07T11:32:31;26.90;80.20
45619;DHT22;31343;47.520;19.144;2023-05-07T11:34:58;27.90;79.30
45619;DHT22;31343;47.520;19.144;2023-05-07T11:37:25;28.10;78.40
45619;DHT22;31343;47.520;19.144;2023-05-07T11:40:03;28.60;77.10
45619;DHT22;31343;47.520;19.144;2023-05-07T11:42:32;29.40;74.70
45619;DHT22;31343;47.520;19.144;2023-05-07T11:44:59;28.90;74.10
45619;DHT22;31343;47.520;19.144;2023-05-07T11:47:25;28.40;74.30
45619;DHT22;31343;47.520;19.144;2023-05-07T11:49:54;28.20;72.70
45619;DHT22;31343;47.520;19.144;2023-05-07T11:52:22;27.00;75.00
45619;DHT22;31343;47.520;19.144;2023-05-07T11:54:56;26.30;77.50
45619;DHT22;31343;47.520;19.144;2023-05-07T11:57:25;26.30;79.00
45619;DHT22;31343;47.520;19.144;2023-05-07T11:59:55;26.30;78.10
45619;DHT22;31343;47.520;19.144;2023-05-07T12:02:20;26.40;78.00
45619;DHT22;31343;47.520;19.144;2023-05-07T12:04:46;27.10;78.30
45619;DHT22;31343;47.520;19.144;2023-05-07T12:07:15;27.50;76.00
45619;DHT22;31343;47.520;19.144;2023-05-07T12:09:45;28.30;75.50
45619;DHT22;31343;47.520;19.144;2023-05-07T12:12:11;29.60;73.60
45619;DHT22;31343;47.520;19.144;2023-05-07T12:14:45;30.60;69.40
45619;DHT22;31343;47.520;19.144;2023-05-07T12:17:13;31.60;67.80
45619;DHT22;31343;47.520;19.144;2023-05-07T12:19:41;32.10;66.10
45619;DHT22;31343;47.520;19.144;2023-05-07T12:22:10;32.50;66.20
45619;DHT22;31343;47.520;19.144;2023-05-07T12:24:56;32.70;65.00
45619;DHT22;31343;47.520;19.144;2023-05-07T12:27:22;32.40;65.00
45619;DHT22;31343;47.520;19.144;2023-05-07T12:29:49;32.90;64.20
45619;DHT22;31343;47.520;19.144;2023-05-07T12:32:20;33.00;63.30
45619;DHT22;31343;47.520;19.144;2023-05-07T12:34:50;33.20;61.30
45619;DHT22;31343;47.520;19.144;2023-05-07T12:37:16;32.10;62.80
45619;DHT22;31343;47.520;19.144;2023-05-07T12:39:48;32.60;63.50
45619;DHT22;31343;47.520;19.144;2023-05-07T12:42:20;33.10;62.20
45619;DHT22;31343;47.520;19.144;2023-05-07T12:44:51;33.10;61.50
45619;DHT22;31343;47.520;19.144;2023-05-07T12:47:17;32.70;61.20
45619;DHT22;31343;47.520;19.144;2023-05-07T12:49:45;32.20;61.30
45619;DHT22;31343;47.520;19.144;2023-05-07T12:52:11;30.20;63.10
45619;DHT22;31343;47.520;19.144;2023-05-07T12:54:38;29.40;64.90
45619;DHT22;31343;47.520;19.144;2023-05-07T12:57:09;28.80;67.00
45619;DHT22;31343;47.520;19.144;2023-05-07T12:59:39;28.70;68.00
45619;DHT22;31343;47.520;19.144;2023-05-07T13:02:05;28.30;68.70
45619;DHT22;31343;47.520;19.144;2023-05-07T13:04:32;28.10;69.40
45619;DHT22;31343;47.520;19.144;2023-05-07T13:06:58;27.90;69.70
45619;DHT22;31343;47.520;19.144;2023-05-07T13:09:24;28.10;69.80
45619;DHT22;31343;47.520;19.144;2023-05-07T13:11:50;28.10;70.00
45619;DHT22;31343;47.520;19.144;2023-05-07T13:14:16;28.10;69.20
45619;DHT22;31343;47.520;19.144;2023-05-07T13:16:42;28.00;70.10
45619;DHT22;31343;47.520;19.144;2023-05-07T13:19:08;28.10;70.00
45619;DHT22;31343;47.520;19.144;2023-05-07T13:21:33;28.10;69.60
45619;DHT22;31343;47.520;19.144;2023-05-07T13:23:59;27.90;69.10
45619;DHT22;31343;47.520;19.144;2023-05-07T13:26:25;27.90;69.00
45619;DHT22;31343;47.520;19.144;2023-05-07T13:28:52;27.60;68.60
45619;DHT22;31343;47.520;19.144;2023-05-07T13:31:18;27.00;69.10
45619;DHT22;31343;47.520;19.144;2023-05-07T13:33:43;27.00;70.00
45619;DHT22;31343;47.520;19.144;2023-05-07T13:36:09;27.00;71.20
45619;DHT22;31343;47.520;19.144;2023-05-07T13:38:35;27.10;69.70
45619;DHT22;31343;47.520;19.144;2023-05-07T13:41:01;27.20;69.50
45619;DHT22;31343;47.520;19.144;2023-05-07T13:43:27;27.10;69.70
45619;DHT22;31343;47.520;19.144;2023-05-07T13:45:52;26.90;69.80
45619;DHT22;31343;47.520;19.144;2023-05-07T13:48:18;26.80;70.40
45619;DHT22;31343;47.520;19.144;2023-05-07T13:50:44;26.50;70.00
45619;DHT22;31343;47.520;19.144;2023-05-07T13:53:10;26.60;69.30
45619;DHT22;31343;47.520;19.144;2023-05-07T13:55:35;26.40;70.30
45619;DHT22;31343;47.520;19.144;2023-05-07T13:58:02;26.30;71.00
45619;DHT22;31343;47.520;19.144;2023-05-07T14:00:28;26.50;71.70
45619;DHT22;31343;47.520;19.144;2023-05-07T14:02:55;26.50;70.60
45619;DHT22;31343;47.520;19.144;2023-05-07T14:05:22;26.40;71.50
45619;DHT22;31343;47.520;19.144;2023-05-07T14:07:50;26.50;71.20
45619;DHT22;31343;47.520;19.144;2023-05-07T14:10:18;26.40;70.40
45619;DHT22;31343;47.520;19.144;2023-05-07T14:12:44;26.40;71.00
45619;DHT22;31343;47.520;19.144;2023-05-07T14:15:10;26.40;70.40
45619;DHT22;31343;47.520;19.144;2023-05-07T14:17:36;26.20;70.70
45619;DHT22;31343;47.520;19.144;2023-05-07T14:20:02;26.10;71.60
45619;DHT22;31343;47.520;19.144;2023-05-07T14:22:28;26.00;71.20
45619;DHT22;31343;47.520;19.144;2023-05-07T14:24:54;26.10;70.60
45619;DHT22;31343;47.520;19.144;2023-05-07T14:27:20;26.00;70.10
45619;DHT22;31343;47.520;19.144;2023-05-07T14:29:45;25.70;70.10
45619;DHT22;31343;47.520;19.144;2023-05-07T14:32:19;25.70;71.10
45619;DHT22;31343;47.520;19.144;2023-05-07T14:34:45;25.70;71.60
45619;DHT22;31343;47.520;19.144;2023-05-07T14:37:12;25.70;70.90
45619;DHT22;31343;47.520;19.144;2023-05-07T14:39:38;25.70;71.20
45619;DHT22;31343;47.520;19.144;2023-05-07T14:42:04;25.70;71.40
45619;DHT22;31343;47.520;19.144;2023-05-07T14:44:30;25.40;70.80
45619;DHT22;31343;47.520;19.144;2023-05-07T14:46:56;25.40;71.60
45619;DHT22;31343;47.520;19.144;2023-05-07T14:49:22;25.50;72.00
45619;DHT22;31343;47.520;19.144;2023-05-07T14:51:49;25.40;71.60
45619;DHT22;31343;47.520;19.144;2023-05-07T14:54:15;25.40;72.20
45619;DHT22;31343;47.520;19.144;2023-05-07T14:56:41;25.40;72.40
45619;DHT22;31343;47.520;19.144;2023-05-07T14:59:08;25.30;73.10
45619;DHT22;31343;47.520;19.144;2023-05-07T15:01:37;25.40;73.20
45619;DHT22;31343;47.520;19.144;2023-05-07T15:04:04;25.30;72.70
45619;DHT22;31343;47.520;19.144;2023-05-07T15:06:31;25.10;73.70
45619;DHT22;31343;47.520;19.144;2023-05-07T15:08:56;25.10;73.20
45619;DHT22;31343;47.520;19.144;2023-05-07T15:11:22;25.00;73.50
45619;DHT22;31343;47.520;19.144;2023-05-07T15:13:48;25.00;74.20
45619;DHT22;31343;47.520;19.144;2023-05-07T15:16:14;24.90;74.50
45619;DHT22;31343;47.520;19.144;2023-05-07T15:18:40;24.90;75.10
45619;DHT22;31343;47.520;19.144;2023-05-07T15:21:06;24.90;75.30
45619;DHT22;31343;47.520;19.144;2023-05-07T15:23:32;24.80;74.90
45619;DHT22;31343;47.520;19.144;2023-05-07T15:25:57;24.60;74.70
45619;DHT22;31343;47.520;19.144;2023-05-07T15:28:23;24.60;75.10
45619;DHT22;31343;47.520;19.144;2023-05-07T15:30:50;24.40;75.50
45619;DHT22;31343;47.520;19.144;2023-05-07T15:33:16;24.30;75.90
45619;DHT22;31343;47.520;19.144;2023-05-07T15:35:42;24.40;76.30